sensor_id;sensor_type;location;lat;lon;timestamp;pressure;altitude;pressure_sealevel;temperature;humidity
31331;BME280;34067;39.548;-76.088;2023-05-23T00:01:36;102103.43;;;25.25;37.43
31331;BME280;34067;39.548;-76.088;2023-05-23T00:04:04;102101.27;;;26.37;36.93
31331;BME280;34067;39.548;-76.088;2023-05-23T00:06:32;102104.42;;;25.95;36.13
31331;BME280;34067;39.548;-76.088;2023-05-23T00:09:00;102106.12;;;25.32;36.27
31331;BME280;34067;39.548;-76.088;2023-05-23T00:11:28;102108.58;;;25.51;36.64
31331;BME280;34067;39.548;-76.088;2023-05-23T00:13:56;102107.59;;;25.24;37.05
31331;BME280;34067;39.548;-76.088;2023-05-23T00:16:24;102105.71;;;25.63;37.00
31331;BME280;34067;39.548;-76.088;2023-05-23T00:18:52;102107.17;;;25.48;37.60
31331;BME280;34067;39.548;-76.088;2023-05-23T00:21:20;102109.68;;;25.25;37.18
31331;BME280;34067;39.548;-76.088;2023-05-23T00:23:48;102112.54;;;24.82;36.91
31331;BME280;34067;39.548;-76.088;2023-05-23T00:26:16;102114.37;;;25.45;37.45
31331;BME280;34067;39.548;-76.088;2023-05-23T00:28:44;102117.46;;;25.00;36.65
31331;BME280;34067;39.548;-76.088;2023-05-23T00:31:12;102124.16;;;24.89;37.19
31331;BME280;34067;39.548;-76.088;2023-05-23T00:33:40;102122.23;;;24.25;38.18
31331;BME280;34067;39.548;-76.088;2023-05-23T00:36:08;102126.30;;;24.59;37.00
31331;BME280;34067;39.548;-76.088;2023-05-23T00:38:36;102128.45;;;24.32;37.72
31331;BME280;34067;39.548;-76.088;2023-05-23T00:41:04;102128.29;;;24.31;37.77
31331;BME280;34067;39.548;-76.088;2023-05-23T00:43:32;102129.19;;;25.09;37.45
31331;BME280;34067;39.548;-76.088;2023-05-23T00:46:00;102129.63;;;23.87;40.61
31331;BME280;34067;39.548;-76.088;2023-05-23T00:48:28;102135.68;;;22.91;40.48
31331;BME280;34067;39.548;-76.088;2023-05-23T00:50:56;102142.36;;;23.68;40.22
31331;BME280;34067;39.548;-76.088;2023-05-23T00:53:24;102145.01;;;23.96;39.59
31331;BME280;34067;39.548;-76.088;2023-05-23T00:55:52;102149.26;;;23.60;39.81
31331;BME280;34067;39.548;-76.088;2023-05-23T00:58:20;102151.05;;;24.11;37.93
31331;BME280;34067;39.548;-76.088;2023-05-23T01:00:48;102155.44;;;23.97;39.44
31331;BME280;34067;39.548;-76.088;2023-05-23T01:03:16;102155.82;;;23.86;38.97
31331;BME280;34067;39.548;-76.088;2023-05-23T01:05:45;102164.31;;;23.96;39.33
31331;BME280;34067;39.548;-76.088;2023-05-23T01:08:12;102172.68;;;23.74;39.22
31331;BME280;34067;39.548;-76.088;2023-05-23T01:10:40;102176.03;;;22.98;40.66
31331;BME280;34067;39.548;-76.088;2023-05-23T01:13:21;102179.37;;;23.51;39.34
31331;BME280;34067;39.548;-76.088;2023-05-23T01:15:56;102180.16;;;23.26;39.18
31331;BME280;34067;39.548;-76.088;2023-05-23T01:18:31;102181.48;;;23.75;40.24
31331;BME280;34067;39.548;-76.088;2023-05-23T01:21:06;102190.37;;;23.46;38.73
31331;BME280;34067;39.548;-76.088;2023-05-23T01:24:02;102197.32;;;22.79;40.18
31331;BME280;34067;39.548;-76.088;2023-05-23T01:26:48;102203.55;;;22.99;40.18
31331;BME280;34067;39.548;-76.088;2023-05-23T01:29:27;102206.14;;;23.23;40.70
31331;BME280;34067;39.548;-76.088;2023-05-23T01:31:57;102208.19;;;22.82;40.70
31331;BME280;34067;39.548;-76.088;2023-05-23T01:34:26;102211.58;;;22.37;41.23
31331;BME280;34067;39.548;-76.088;2023-05-23T01:36:56;102217.62;;;23.28;40.22
31331;BME280;34067;39.548;-76.088;2023-05-23T01:39:23;102218.57;;;22.43;41.91
31331;BME280;34067;39.548;-76.088;2023-05-23T01:41:52;102223.55;;;22.10;42.61
31331;BME280;34067;39.548;-76.088;2023-05-23T01:44:21;102232.66;;;23.56;41.37
31331;BME280;34067;39.548;-76.088;2023-05-23T01:46:49;102236.88;;;22.59;41.96
31331;BME280;34067;39.548;-76.088;2023-05-23T01:49:18;102236.71;;;22.65;42.34
31331;BME280;34067;39.548;-76.088;2023-05-23T01:51:49;102235.24;;;22.82;42.03
31331;BME280;34067;39.548;-76.088;2023-05-23T01:54:17;102240.35;;;22.26;44.09
31331;BME280;34067;39.548;-76.088;2023-05-23T01:56:46;102250.51;;;21.37;45.87
31331;BME280;34067;39.548;-76.088;2023-05-23T01:59:14;102247.92;;;21.81;45.21
31331;BME280;34067;39.548;-76.088;2023-05-23T02:01:42;102250.00;;;22.74;45.18
31331;BME280;34067;39.548;-76.088;2023-05-23T02:04:11;102255.77;;;21.91;43.80
31331;BME280;34067;39.548;-76.088;2023-05-23T02:06:40;102261.32;;;22.36;43.16
31331;BME280;34067;39.548;-76.088;2023-05-23T02:09:08;102267.40;;;22.00;43.07
31331;BME280;34067;39.548;-76.088;2023-05-23T02:11:35;102268.39;;;22.23;42.57
31331;BME280;34067;39.548;-76.088;2023-05-23T02:14:05;102268.95;;;22.13;42.03
31331;BME280;34067;39.548;-76.088;2023-05-23T02:16:33;102269.74;;;22.54;42.28
31331;BME280;34067;39.548;-76.088;2023-05-23T02:19:01;102271.87;;;22.38;42.62
31331;BME280;34067;39.548;-76.088;2023-05-23T02:21:29;102275.37;;;22.26;43.61
31331;BME280;34067;39.548;-76.088;2023-05-23T02:23:57;102278.62;;;22.25;43.05
31331;BME280;34067;39.548;-76.088;2023-05-23T02:26:25;102288.23;;;22.52;43.44
31331;BME280;34067;39.548;-76.088;2023-05-23T02:28:53;102286.94;;;22.31;44.55
31331;BME280;34067;39.548;-76.088;2023-05-23T02:31:21;102287.55;;;20.46;47.21
31331;BME280;34067;39.548;-76.088;2023-05-23T02:33:48;102284.33;;;21.16;47.67
31331;BME280;34067;39.548;-76.088;2023-05-23T02:36:16;102284.00;;;21.19;47.54
31331;BME280;34067;39.548;-76.088;2023-05-23T02:38:44;102286.66;;;21.15;48.42
31331;BME280;34067;39.548;-76.088;2023-05-23T02:41:12;102288.91;;;20.63;51.94
31331;BME280;34067;39.548;-76.088;2023-05-23T02:43:39;102290.86;;;19.84;52.10
31331;BME280;34067;39.548;-76.088;2023-05-23T02:46:07;102286.53;;;21.02;51.70
31331;BME280;34067;39.548;-76.088;2023-05-23T02:48:34;102289.90;;;21.33;51.49
31331;BME280;34067;39.548;-76.088;2023-05-23T02:51:02;102292.01;;;21.00;51.72
31331;BME280;34067;39.548;-76.088;2023-05-23T02:53:30;102299.06;;;20.70;51.55
31331;BME280;34067;39.548;-76.088;2023-05-23T02:55:58;102297.52;;;20.96;49.58
31331;BME280;34067;39.548;-76.088;2023-05-23T02:58:26;102297.26;;;21.66;47.51
31331;BME280;34067;39.548;-76.088;2023-05-23T03:00:54;102301.01;;;21.27;47.97
31331;BME280;34067;39.548;-76.088;2023-05-23T03:03:22;102302.61;;;21.36;47.42
31331;BME280;34067;39.548;-76.088;2023-05-23T03:05:50;102302.77;;;21.72;49.97
31331;BME280;34067;39.548;-76.088;2023-05-23T03:08:18;102304.32;;;20.66;53.89
31331;BME280;34067;39.548;-76.088;2023-05-23T03:10:46;102313.40;;;19.16;56.04
31331;BME280;34067;39.548;-76.088;2023-05-23T03:13:14;102316.19;;;19.92;56.79
31331;BME280;34067;39.548;-76.088;2023-05-23T03:15:41;102319.81;;;20.05;58.99
31331;BME280;34067;39.548;-76.088;2023-05-23T03:18:09;102319.59;;;20.66;57.45
31331;BME280;34067;39.548;-76.088;2023-05-23T03:20:37;102320.27;;;19.97;61.69
31331;BME280;34067;39.548;-76.088;2023-05-23T03:23:05;102319.90;;;18.91;63.86
31331;BME280;34067;39.548;-76.088;2023-05-23T03:25:34;102321.36;;;19.29;62.56
31331;BME280;34067;39.548;-76.088;2023-05-23T03:28:02;102319.90;;;20.19;56.71
31331;BME280;34067;39.548;-76.088;2023-05-23T03:30:29;102318.18;;;20.34;58.30
31331;BME280;34067;39.548;-76.088;2023-05-23T03:32:57;102318.24;;;20.75;60.95
31331;BME280;34067;39.548;-76.088;2023-05-23T03:35:25;102319.63;;;19.24;66.53
31331;BME280;34067;39.548;-76.088;2023-05-23T03:37:53;102321.39;;;19.27;67.67
31331;BME280;34067;39.548;-76.088;2023-05-23T03:40:21;102319.32;;;19.08;67.64
31331;BME280;34067;39.548;-76.088;2023-05-23T03:43:01;102325.23;;;19.51;66.71
31331;BME280;34067;39.548;-76.088;2023-05-23T03:45:29;102331.73;;;19.39;67.31
31331;BME280;34067;39.548;-76.088;2023-05-23T03:47:57;102333.34;;;19.35;65.35
31331;BME280;34067;39.548;-76.088;2023-05-23T03:50:25;102337.01;;;19.92;64.45
31331;BME280;34067;39.548;-76.088;2023-05-23T03:52:53;102341.56;;;19.83;61.40
31331;BME280;34067;39.548;-76.088;2023-05-23T03:55:21;102344.64;;;20.06;62.86
31331;BME280;34067;39.548;-76.088;2023-05-23T03:57:49;102345.70;;;20.07;62.77
31331;BME280;34067;39.548;-76.088;2023-05-23T04:00:18;102349.43;;;20.21;63.32
31331;BME280;34067;39.548;-76.088;2023-05-23T04:02:46;102351.60;;;19.59;66.82
31331;BME280;34067;39.548;-76.088;2023-05-23T04:05:14;102351.05;;;18.98;68.64
31331;BME280;34067;39.548;-76.088;2023-05-23T04:07:42;102345.87;;;19.44;69.43
31331;BME280;34067;39.548;-76.088;2023-05-23T04:10:11;102351.32;;;18.66;71.13
31331;BME280;34067;39.548;-76.088;2023-05-23T04:12:38;102351.87;;;19.50;68.58
31331;BME280;34067;39.548;-76.088;2023-05-23T04:15:07;102350.65;;;19.39;65.54
31331;BME280;34067;39.548;-76.088;2023-05-23T04:17:36;102349.97;;;20.49;64.63
31331;BME280;34067;39.548;-76.088;2023-05-23T04:20:06;102353.05;;;20.36;62.25
31331;BME280;34067;39.548;-76.088;2023-05-23T04:22:34;102352.60;;;19.49;64.01
31331;BME280;34067;39.548;-76.088;2023-05-23T04:25:04;102350.56;;;18.32;68.59
31331;BME280;34067;39.548;-76.088;2023-05-23T04:27:32;102349.13;;;18.04;72.04
31331;BME280;34067;39.548;-76.088;2023-05-23T04:30:00;102345.40;;;18.46;73.73
31331;BME280;34067;39.548;-76.088;2023-05-23T04:32:28;102350.45;;;17.59;80.02
31331;BME280;34067;39.548;-76.088;2023-05-23T04:34:56;102342.81;;;18.40;78.59
31331;BME280;34067;39.548;-76.088;2023-05-23T04:37:23;102347.17;;;16.92;83.87
31331;BME280;34067;39.548;-76.088;2023-05-23T04:39:52;102346.01;;;17.87;80.82
31331;BME280;34067;39.548;-76.088;2023-05-23T04:42:21;102348.55;;;17.75;80.38
31331;BME280;34067;39.548;-76.088;2023-05-23T04:44:49;102350.51;;;17.79;81.65
31331;BME280;34067;39.548;-76.088;2023-05-23T04:47:17;102356.49;;;17.59;79.80
31331;BME280;34067;39.548;-76.088;2023-05-23T04:49:45;102360.54;;;17.58;80.74
31331;BME280;34067;39.548;-76.088;2023-05-23T04:52:13;102359.30;;;17.62;83.82
31331;BME280;34067;39.548;-76.088;2023-05-23T04:54:41;102363.28;;;17.04;83.14
31331;BME280;34067;39.548;-76.088;2023-05-23T04:57:08;102364.50;;;16.82;83.78
31331;BME280;34067;39.548;-76.088;2023-05-23T04:59:36;102365.89;;;16.71;85.33
31331;BME280;34067;39.548;-76.088;2023-05-23T05:03:11;102363.33;;;17.76;79.96
31331;BME280;34067;39.548;-76.088;2023-05-23T05:05:39;102366.04;;;18.47;78.73
31331;BME280;34067;39.548;-76.088;2023-05-23T05:08:07;102363.90;;;18.93;77.25
31331;BME280;34067;39.548;-76.088;2023-05-23T05:10:37;102369.63;;;17.09;81.83
31331;BME280;34067;39.548;-76.088;2023-05-23T05:13:04;102372.53;;;18.36;79.06
31331;BME280;34067;39.548;-76.088;2023-05-23T05:15:32;102374.11;;;18.02;77.51
31331;BME280;34067;39.548;-76.088;2023-05-23T05:18:00;102374.41;;;18.09;82.21
31331;BME280;34067;39.548;-76.088;2023-05-23T05:20:28;102375.24;;;17.42;82.00
31331;BME280;34067;39.548;-76.088;2023-05-23T05:22:56;102374.66;;;17.78;82.04
31331;BME280;34067;39.548;-76.088;2023-05-23T05:25:24;102374.62;;;17.65;82.95
31331;BME280;34067;39.548;-76.088;2023-05-23T05:27:52;102376.54;;;17.83;81.93
31331;BME280;34067;39.548;-76.088;2023-05-23T05:30:20;102381.24;;;17.27;80.09
31331;BME280;34067;39.548;-76.088;2023-05-23T05:32:48;102378.48;;;17.61;78.80
31331;BME280;34067;39.548;-76.088;2023-05-23T05:35:16;102374.05;;;18.38;76.06
31331;BME280;34067;39.548;-76.088;2023-05-23T05:37:44;102380.33;;;18.22;76.31
31331;BME280;34067;39.548;-76.088;2023-05-23T05:40:12;102377.24;;;18.08;74.81
31331;BME280;34067;39.548;-76.088;2023-05-23T05:42:40;102379.98;;;18.78;75.77
31331;BME280;34067;39.548;-76.088;2023-05-23T05:45:08;102382.01;;;17.58;76.02
31331;BME280;34067;39.548;-76.088;2023-05-23T05:47:35;102384.49;;;17.60;75.00
31331;BME280;34067;39.548;-76.088;2023-05-23T05:50:04;102380.46;;;17.85;76.93
31331;BME280;34067;39.548;-76.088;2023-05-23T05:52:32;102379.93;;;17.64;77.32
31331;BME280;34067;39.548;-76.088;2023-05-23T05:55:01;102378.90;;;18.11;77.98
31331;BME280;34067;39.548;-76.088;2023-05-23T05:57:29;102378.97;;;17.85;80.40
31331;BME280;34067;39.548;-76.088;2023-05-23T05:59:56;102380.15;;;17.47;80.76
31331;BME280;34067;39.548;-76.088;2023-05-23T06:02:24;102381.36;;;16.55;82.95
31331;BME280;34067;39.548;-76.088;2023-05-23T06:04:51;102379.03;;;17.51;79.20
31331;BME280;34067;39.548;-76.088;2023-05-23T06:07:19;102378.11;;;17.78;78.40
31331;BME280;34067;39.548;-76.088;2023-05-23T06:09:47;102381.73;;;16.53;81.32
31331;BME280;34067;39.548;-76.088;2023-05-23T06:12:15;102382.13;;;17.46;80.61
31331;BME280;34067;39.548;-76.088;2023-05-23T06:14:42;102382.38;;;17.53;79.17
31331;BME280;34067;39.548;-76.088;2023-05-23T06:17:10;102378.79;;;17.44;78.66
31331;BME280;34067;39.548;-76.088;2023-05-23T06:19:38;102381.09;;;17.19;77.96
31331;BME280;34067;39.548;-76.088;2023-05-23T06:22:06;102382.11;;;16.69;78.79
31331;BME280;34067;39.548;-76.088;2023-05-23T06:24:34;102381.02;;;17.77;79.40
31331;BME280;34067;39.548;-76.088;2023-05-23T06:27:02;102385.31;;;17.38;78.87
31331;BME280;34067;39.548;-76.088;2023-05-23T06:29:30;102390.21;;;17.55;76.89
31331;BME280;34067;39.548;-76.088;2023-05-23T06:31:57;102391.25;;;17.99;77.14
31331;BME280;34067;39.548;-76.088;2023-05-23T06:34:25;102393.05;;;17.24;77.59
31331;BME280;34067;39.548;-76.088;2023-05-23T06:36:54;102397.15;;;17.00;80.10
31331;BME280;34067;39.548;-76.088;2023-05-23T06:39:23;102397.26;;;16.95;78.30
31331;BME280;34067;39.548;-76.088;2023-05-23T06:41:52;102400.32;;;17.15;77.76
31331;BME280;34067;39.548;-76.088;2023-05-23T06:44:20;102395.90;;;17.54;76.11
31331;BME280;34067;39.548;-76.088;2023-05-23T06:46:48;102398.52;;;17.36;75.87
31331;BME280;34067;39.548;-76.088;2023-05-23T06:49:16;102397.09;;;17.10;76.15
31331;BME280;34067;39.548;-76.088;2023-05-23T06:51:44;102398.52;;;17.14;75.42
31331;BME280;34067;39.548;-76.088;2023-05-23T06:54:12;102400.62;;;17.66;77.10
31331;BME280;34067;39.548;-76.088;2023-05-23T06:56:40;102397.87;;;17.13;76.96
31331;BME280;34067;39.548;-76.088;2023-05-23T06:59:08;102392.89;;;17.17;73.54
31331;BME280;34067;39.548;-76.088;2023-05-23T07:01:36;102393.76;;;17.35;74.99
31331;BME280;34067;39.548;-76.088;2023-05-23T07:04:04;102394.20;;;16.54;77.68
31331;BME280;34067;39.548;-76.088;2023-05-23T07:06:33;102393.38;;;16.53;76.86
31331;BME280;34067;39.548;-76.088;2023-05-23T07:09:01;102393.76;;;16.59;76.65
31331;BME280;34067;39.548;-76.088;2023-05-23T07:11:29;102390.97;;;16.06;78.50
31331;BME280;34067;39.548;-76.088;2023-05-23T07:13:58;102393.58;;;16.19;77.85
31331;BME280;34067;39.548;-76.088;2023-05-23T07:16:26;102391.27;;;16.26;77.82
31331;BME280;34067;39.548;-76.088;2023-05-23T07:18:54;102390.37;;;16.75;78.58
31331;BME280;34067;39.548;-76.088;2023-05-23T07:21:22;102391.08;;;16.55;77.16
31331;BME280;34067;39.548;-76.088;2023-05-23T07:23:50;102395.73;;;15.97;79.04
31331;BME280;34067;39.548;-76.088;2023-05-23T07:26:18;102401.05;;;15.40;80.81
31331;BME280;34067;39.548;-76.088;2023-05-23T07:28:45;102402.68;;;16.62;80.10
31331;BME280;34067;39.548;-76.088;2023-05-23T07:31:14;102406.20;;;16.05;80.63
31331;BME280;34067;39.548;-76.088;2023-05-23T07:33:42;102408.84;;;16.33;79.15
31331;BME280;34067;39.548;-76.088;2023-05-23T07:36:10;102411.85;;;16.17;81.18
31331;BME280;34067;39.548;-76.088;2023-05-23T07:38:38;102407.45;;;16.52;78.68
31331;BME280;34067;39.548;-76.088;2023-05-23T07:41:06;102406.11;;;16.87;77.76
31331;BME280;34067;39.548;-76.088;2023-05-23T07:43:34;102407.07;;;16.41;79.66
31331;BME280;34067;39.548;-76.088;2023-05-23T07:46:01;102407.45;;;16.12;79.16
31331;BME280;34067;39.548;-76.088;2023-05-23T07:48:30;102408.96;;;16.53;79.98
31331;BME280;34067;39.548;-76.088;2023-05-23T07:50:58;102406.47;;;16.86;77.66
31331;BME280;34067;39.548;-76.088;2023-05-23T07:53:26;102409.44;;;16.19;79.31
31331;BME280;34067;39.548;-76.088;2023-05-23T07:55:54;102411.53;;;16.14;82.94
31331;BME280;34067;39.548;-76.088;2023-05-23T07:58:22;102412.82;;;15.41;84.72
31331;BME280;34067;39.548;-76.088;2023-05-23T08:00:50;102412.05;;;15.54;84.38
31331;BME280;34067;39.548;-76.088;2023-05-23T08:03:17;102410.79;;;15.87;83.05
31331;BME280;34067;39.548;-76.088;2023-05-23T08:05:45;102412.40;;;15.20;86.91
31331;BME280;34067;39.548;-76.088;2023-05-23T08:08:13;102411.69;;;15.85;82.37
31331;BME280;34067;39.548;-76.088;2023-05-23T08:10:41;102414.91;;;13.97;87.43
31331;BME280;34067;39.548;-76.088;2023-05-23T08:13:09;102417.16;;;14.55;91.34
31331;BME280;34067;39.548;-76.088;2023-05-23T08:15:37;102417.55;;;15.22;90.24
31331;BME280;34067;39.548;-76.088;2023-05-23T08:18:05;102419.82;;;15.32;89.32
31331;BME280;34067;39.548;-76.088;2023-05-23T08:20:33;102420.62;;;14.23;90.66
31331;BME280;34067;39.548;-76.088;2023-05-23T08:23:01;102412.47;;;14.98;88.95
31331;BME280;34067;39.548;-76.088;2023-05-23T08:25:29;102418.48;;;14.83;91.82
31331;BME280;34067;39.548;-76.088;2023-05-23T08:27:57;102418.68;;;15.20;92.90
31331;BME280;34067;39.548;-76.088;2023-05-23T08:30:26;102418.83;;;14.61;92.55
31331;BME280;34067;39.548;-76.088;2023-05-23T08:32:55;102420.25;;;14.10;89.07
31331;BME280;34067;39.548;-76.088;2023-05-23T08:35:23;102422.68;;;14.84;88.22
31331;BME280;34067;39.548;-76.088;2023-05-23T08:37:51;102422.23;;;14.72;88.08
31331;BME280;34067;39.548;-76.088;2023-05-23T08:40:20;102425.79;;;14.13;88.51
31331;BME280;34067;39.548;-76.088;2023-05-23T08:42:48;102424.98;;;15.33;85.96
31331;BME280;34067;39.548;-76.088;2023-05-23T08:45:17;102432.21;;;15.02;85.91
31331;BME280;34067;39.548;-76.088;2023-05-23T08:47:46;102437.38;;;15.05;87.31
31331;BME280;34067;39.548;-76.088;2023-05-23T08:50:15;102438.07;;;14.76;89.86
31331;BME280;34067;39.548;-76.088;2023-05-23T08:52:54;102442.01;;;14.40;87.99
31331;BME280;34067;39.548;-76.088;2023-05-23T08:55:24;102441.65;;;14.63;86.61
31331;BME280;34067;39.548;-76.088;2023-05-23T08:57:52;102437.80;;;14.73;86.11
31331;BME280;34067;39.548;-76.088;2023-05-23T09:00:21;102437.52;;;15.58;83.86
31331;BME280;34067;39.548;-76.088;2023-05-23T09:02:49;102443.89;;;15.61;84.63
31331;BME280;34067;39.548;-76.088;2023-05-23T09:05:17;102446.51;;;15.33;84.86
31331;BME280;34067;39.548;-76.088;2023-05-23T09:07:46;102449.31;;;15.33;82.17
31331;BME280;34067;39.548;-76.088;2023-05-23T09:10:15;102450.72;;;15.54;82.68
31331;BME280;34067;39.548;-76.088;2023-05-23T09:12:43;102453.17;;;15.10;83.32
31331;BME280;34067;39.548;-76.088;2023-05-23T09:15:12;102454.35;;;15.19;83.77
31331;BME280;34067;39.548;-76.088;2023-05-23T09:17:40;102455.08;;;15.38;82.94
31331;BME280;34067;39.548;-76.088;2023-05-23T09:20:12;102460.36;;;16.21;81.34
31331;BME280;34067;39.548;-76.088;2023-05-23T09:22:42;102459.06;;;14.93;84.17
31331;BME280;34067;39.548;-76.088;2023-05-23T09:25:12;102460.44;;;15.75;82.32
31331;BME280;34067;39.548;-76.088;2023-05-23T09:27:41;102467.35;;;15.19;80.98
31331;BME280;34067;39.548;-76.088;2023-05-23T09:30:11;102472.79;;;16.27;80.56
31331;BME280;34067;39.548;-76.088;2023-05-23T09:32:39;102474.06;;;15.83;80.30
31331;BME280;34067;39.548;-76.088;2023-05-23T09:35:08;102470.89;;;15.32;81.65
31331;BME280;34067;39.548;-76.088;2023-05-23T09:37:37;102475.61;;;15.50;83.02
31331;BME280;34067;39.548;-76.088;2023-05-23T09:40:07;102477.03;;;15.40;83.07
31331;BME280;34067;39.548;-76.088;2023-05-23T09:42:41;102472.68;;;15.60;82.19
31331;BME280;34067;39.548;-76.088;2023-05-23T09:45:10;102467.09;;;15.65;85.31
31331;BME280;34067;39.548;-76.088;2023-05-23T09:47:38;102470.26;;;15.13;88.57
31331;BME280;34067;39.548;-76.088;2023-05-23T09:50:07;102472.00;;;14.26;92.22
31331;BME280;34067;39.548;-76.088;2023-05-23T09:52:36;102476.36;;;13.28;98.16
31331;BME280;34067;39.548;-76.088;2023-05-23T09:55:05;102479.92;;;13.44;96.16
31331;BME280;34067;39.548;-76.088;2023-05-23T09:57:35;102481.67;;;14.21;95.79
31331;BME280;34067;39.548;-76.088;2023-05-23T10:00:04;102485.47;;;12.25;98.48
31331;BME280;34067;39.548;-76.088;2023-05-23T10:02:59;102484.60;;;13.95;95.98
31331;BME280;34067;39.548;-76.088;2023-05-23T10:05:35;102488.61;;;12.59;96.31
31331;BME280;34067;39.548;-76.088;2023-05-23T10:08:10;102495.35;;;13.25;99.49
31331;BME280;34067;39.548;-76.088;2023-05-23T10:11:47;102496.60;;;14.63;92.61
31331;BME280;34067;39.548;-76.088;2023-05-23T10:14:43;102504.70;;;13.22;98.28
31331;BME280;34067;39.548;-76.088;2023-05-23T10:17:17;102507.59;;;13.44;94.67
31331;BME280;34067;39.548;-76.088;2023-05-23T10:19:49;102508.95;;;14.60;92.23
31331;BME280;34067;39.548;-76.088;2023-05-23T10:22:20;102514.16;;;13.77;90.23
31331;BME280;34067;39.548;-76.088;2023-05-23T10:24:49;102518.32;;;14.37;90.02
31331;BME280;34067;39.548;-76.088;2023-05-23T10:27:16;102523.15;;;15.57;87.02
31331;BME280;34067;39.548;-76.088;2023-05-23T10:29:45;102529.18;;;15.04;91.72
31331;BME280;34067;39.548;-76.088;2023-05-23T10:32:13;102530.14;;;14.95;88.54
31331;BME280;34067;39.548;-76.088;2023-05-23T10:34:50;102531.02;;;15.33;87.14
31331;BME280;34067;39.548;-76.088;2023-05-23T10:37:34;102535.51;;;15.56;86.54
31331;BME280;34067;39.548;-76.088;2023-05-23T10:40:12;102537.13;;;15.17;87.58
31331;BME280;34067;39.548;-76.088;2023-05-23T10:42:51;102543.98;;;14.72;89.73
31331;BME280;34067;39.548;-76.088;2023-05-23T10:45:23;102546.88;;;15.39;87.23
31331;BME280;34067;39.548;-76.088;2023-05-23T10:47:52;102547.96;;;14.94;89.92
31331;BME280;34067;39.548;-76.088;2023-05-23T10:50:36;102550.20;;;15.04;88.60
31331;BME280;34067;39.548;-76.088;2023-05-23T10:53:05;102553.58;;;14.27;87.33
31331;BME280;34067;39.548;-76.088;2023-05-23T10:55:34;102552.26;;;14.95;84.99
31331;BME280;34067;39.548;-76.088;2023-05-23T10:58:10;102550.65;;;16.27;82.16
31331;BME280;34067;39.548;-76.088;2023-05-23T11:00:38;102551.11;;;15.78;82.52
31331;BME280;34067;39.548;-76.088;2023-05-23T11:03:08;102551.46;;;15.57;83.07
31331;BME280;34067;39.548;-76.088;2023-05-23T11:05:36;102549.56;;;15.38;81.90
31331;BME280;34067;39.548;-76.088;2023-05-23T11:08:08;102549.78;;;15.30;82.94
31331;BME280;34067;39.548;-76.088;2023-05-23T11:10:53;102549.66;;;15.39;84.46
31331;BME280;34067;39.548;-76.088;2023-05-23T11:13:22;102549.98;;;15.12;85.46
31331;BME280;34067;39.548;-76.088;2023-05-23T11:15:50;102553.35;;;14.39;90.91
31331;BME280;34067;39.548;-76.088;2023-05-23T11:18:21;102554.34;;;15.26;89.04
31331;BME280;34067;39.548;-76.088;2023-05-23T11:20:51;102553.73;;;14.80;89.39
31331;BME280;34067;39.548;-76.088;2023-05-23T11:23:20;102552.52;;;14.52;90.06
31331;BME280;34067;39.548;-76.088;2023-05-23T11:25:49;102549.00;;;15.52;85.04
31331;BME280;34067;39.548;-76.088;2023-05-23T11:28:18;102554.95;;;14.51;89.16
31331;BME280;34067;39.548;-76.088;2023-05-23T11:30:48;102556.48;;;14.81;88.48
31331;BME280;34067;39.548;-76.088;2023-05-23T11:33:17;102551.63;;;15.24;88.33
31331;BME280;34067;39.548;-76.088;2023-05-23T11:35:46;102550.68;;;15.09;91.25
31331;BME280;34067;39.548;-76.088;2023-05-23T11:38:14;102551.99;;;15.53;86.81
31331;BME280;34067;39.548;-76.088;2023-05-23T11:40:44;102551.39;;;15.34;87.92
31331;BME280;34067;39.548;-76.088;2023-05-23T11:43:15;102548.52;;;16.00;84.50
31331;BME280;34067;39.548;-76.088;2023-05-23T11:45:43;102548.13;;;16.50;82.36
31331;BME280;34067;39.548;-76.088;2023-05-23T11:48:13;102549.22;;;15.05;82.66
31331;BME280;34067;39.548;-76.088;2023-05-23T11:50:46;102549.58;;;15.93;82.66
31331;BME280;34067;39.548;-76.088;2023-05-23T11:53:16;102552.06;;;16.50;84.26
31331;BME280;34067;39.548;-76.088;2023-05-23T11:55:49;102554.18;;;15.86;80.69
31331;BME280;34067;39.548;-76.088;2023-05-23T11:58:17;102556.76;;;14.84;83.01
31331;BME280;34067;39.548;-76.088;2023-05-23T12:00:45;102555.70;;;15.30;88.28
31331;BME280;34067;39.548;-76.088;2023-05-23T12:03:13;102557.45;;;15.27;88.39
31331;BME280;34067;39.548;-76.088;2023-05-23T12:05:42;102555.84;;;15.03;86.74
31331;BME280;34067;39.548;-76.088;2023-05-23T12:08:11;102548.91;;;15.76;83.47
31331;BME280;34067;39.548;-76.088;2023-05-23T12:10:49;102551.24;;;15.40;86.17
31331;BME280;34067;39.548;-76.088;2023-05-23T12:13:17;102550.42;;;15.53;86.03
31331;BME280;34067;39.548;-76.088;2023-05-23T12:15:45;102548.27;;;15.78;83.22
31331;BME280;34067;39.548;-76.088;2023-05-23T12:18:14;102553.57;;;16.77;81.17
31331;BME280;34067;39.548;-76.088;2023-05-23T12:20:41;102556.87;;;16.36;76.67
31331;BME280;34067;39.548;-76.088;2023-05-23T12:23:17;102558.29;;;17.07;77.41
31331;BME280;34067;39.548;-76.088;2023-05-23T12:25:50;102560.35;;;16.62;78.44
31331;BME280;34067;39.548;-76.088;2023-05-23T12:28:19;102558.85;;;16.60;76.12
31331;BME280;34067;39.548;-76.088;2023-05-23T12:30:47;102558.29;;;17.54;71.67
31331;BME280;34067;39.548;-76.088;2023-05-23T12:33:18;102563.13;;;16.00;71.53
31331;BME280;34067;39.548;-76.088;2023-05-23T12:35:46;102560.21;;;17.81;68.12
31331;BME280;34067;39.548;-76.088;2023-05-23T12:38:15;102562.85;;;17.39;69.14
31331;BME280;34067;39.548;-76.088;2023-05-23T12:40:43;102558.50;;;15.29;70.57
31331;BME280;34067;39.548;-76.088;2023-05-23T12:43:11;102560.15;;;16.41;76.32